Time;durP1;ratioP1;P1;durP2;ratioP2;P2;SDS_P1;SDS_P2;PMS_P1;PMS_P2;Temp;Humidity;BMP_temperature;BMP_pressure;BME280_temperature;BME280_humidity;BME280_pressure;Samples;Min_cycle;Max_cycle;Signal;HPM_P1;HPM_P2
2021/11/19 00:00:16;;;;;;;7.65;2.22;;;20.00;45.90;;;;;;4898527;29;20037;-60
2021/11/19 00:02:42;;;;;;;7.35;2.50;;;20.00;45.90;;;;;;4898260;29;20024;-60
2021/11/19 00:05:08;;;;;;;6.97;2.60;;;20.00;45.90;;;;;;4898325;29;20038;-60
2021/11/19 00:07:34;;;;;;;7.35;2.53;;;20.00;45.90;;;;;;4898129;29;20036;-60
2021/11/19 00:10:00;;;;;;;7.43;2.55;;;20.00;45.90;;;;;;4898427;29;20035;-60
2021/11/19 00:12:26;;;;;;;7.38;2.75;;;20.00;45.90;;;;;;4896711;29;20029;-60
2021/11/19 00:14:52;;;;;;;7.72;2.88;;;20.00;45.90;;;;;;4898128;29;20170;-60
2021/11/19 00:17:18;;;;;;;6.78;2.60;;;20.00;45.90;;;;;;4898156;29;20036;-60
2021/11/19 00:19:45;;;;;;;9.50;2.88;;;20.00;45.90;;;;;;4898078;29;20032;-60
2021/11/19 00:22:14;;;;;;;8.38;2.90;;;20.00;45.90;;;;;;4898067;29;20024;-60
2021/11/19 00:24:40;;;;;;;8.20;3.00;;;20.00;46.00;;;;;;4897779;29;20183;-60
2021/11/19 00:27:10;;;;;;;6.68;2.75;;;20.00;45.90;;;;;;4897965;29;20041;-60
2021/11/19 00:29:35;;;;;;;7.45;3.00;;;20.00;46.00;;;;;;4896774;29;20381;-60
2021/11/19 00:32:01;;;;;;;6.40;2.78;;;20.00;46.00;;;;;;4897881;29;20025;-60
2021/11/19 00:34:27;;;;;;;6.95;3.03;;;20.00;46.00;;;;;;4898053;29;20084;-60
2021/11/19 00:36:57;;;;;;;7.57;3.38;;;20.00;46.00;;;;;;4898058;29;20028;-60
2021/11/19 00:39:25;;;;;;;9.95;3.22;;;20.00;46.00;;;;;;4897915;29;20072;-60
2021/11/19 00:41:51;;;;;;;8.80;3.53;;;20.00;46.00;;;;;;4897779;29;20041;-60
2021/11/19 00:44:17;;;;;;;8.15;2.90;;;20.00;46.00;;;;;;4898048;29;20031;-60
2021/11/19 00:46:44;;;;;;;7.88;3.45;;;20.00;46.00;;;;;;4896483;29;20028;-60
2021/11/19 00:49:12;;;;;;;9.40;3.58;;;20.00;46.00;;;;;;4897782;29;20373;-60
2021/11/19 00:51:48;;;;;;;9.68;3.92;;;20.00;46.00;;;;;;4897838;29;20061;-60
2021/11/19 00:54:15;;;;;;;11.45;4.20;;;20.00;46.00;;;;;;4897722;29;20064;-60
2021/11/19 00:56:45;;;;;;;8.23;3.85;;;20.00;46.00;;;;;;4897731;29;20049;-60
2021/11/19 00:59:12;;;;;;;10.65;3.70;;;20.00;46.10;;;;;;4897631;29;20553;-60
2021/11/19 01:01:44;;;;;;;9.93;4.07;;;20.00;46.10;;;;;;4897684;29;20408;-60
2021/11/19 01:04:11;;;;;;;10.60;4.53;;;20.00;46.10;;;;;;4897695;29;20103;-60
2021/11/19 01:06:37;;;;;;;8.73;4.18;;;20.00;46.10;;;;;;4897633;29;20062;-60
2021/11/19 01:09:05;;;;;;;9.05;4.53;;;20.00;46.10;;;;;;4897839;29;20463;-60
2021/11/19 01:11:32;;;;;;;8.57;3.95;;;20.00;46.20;;;;;;4897837;29;20033;-60
2021/11/19 01:13:59;;;;;;;15.88;5.43;;;20.00;46.10;;;;;;4897772;29;20025;-60
2021/11/19 01:16:58;;;;;;;8.35;4.32;;;20.00;46.20;;;;;;4897632;29;20047;-60
2021/11/19 01:19:47;;;;;;;8.90;4.70;;;20.00;46.20;;;;;;4897574;29;20056;-61
2021/11/19 01:22:23;;;;;;;9.73;4.68;;;20.00;46.20;;;;;;4897486;29;20555;-60
2021/11/19 01:24:49;;;;;;;10.00;4.75;;;20.00;46.20;;;;;;4899054;29;20053;-60
2021/11/19 01:27:16;;;;;;;11.93;4.97;;;20.00;46.20;;;;;;4901632;29;20441;-60
2021/11/19 01:29:41;;;;;;;9.43;5.47;;;20.00;46.20;;;;;;4901026;29;20052;-60
2021/11/19 01:32:13;;;;;;;9.55;4.97;;;20.00;46.20;;;;;;4884148;29;20079;-60
2021/11/19 01:34:39;;;;;;;11.70;6.10;;;20.00;46.20;;;;;;4901159;29;20032;-60
2021/11/19 01:37:08;;;;;;;11.35;6.07;;;20.00;46.30;;;;;;4901065;29;20036;-60
2021/11/19 01:39:35;;;;;;;11.05;6.18;;;20.00;46.20;;;;;;4901044;29;20024;-60
2021/11/19 01:42:15;;;;;;;12.65;5.97;;;20.00;46.30;;;;;;4900925;29;20032;-60
2021/11/19 01:44:53;;;;;;;10.98;5.47;;;20.00;46.30;;;;;;4900798;29;20025;-60
2021/11/19 01:47:20;;;;;;;9.85;5.40;;;20.00;46.30;;;;;;4900850;29;20041;-60
2021/11/19 01:49:46;;;;;;;12.00;6.85;;;20.00;46.30;;;;;;4900720;29;20032;-60
2021/11/19 01:52:21;;;;;;;11.45;6.15;;;19.90;46.30;;;;;;4900714;29;20396;-60
2021/11/19 01:54:55;;;;;;;;;;;20.00;46.40;;;;;;4901131;29;20373;-60
2021/11/19 01:57:27;;;;;;;10.63;5.68;;;19.90;46.30;;;;;;4900607;29;19911;-60
2021/11/19 01:59:55;;;;;;;10.65;6.15;;;20.00;46.40;;;;;;4900768;29;20036;-60
2021/11/19 02:02:31;;;;;;;9.50;5.82;;;19.90;46.40;;;;;;4900442;29;20370;-60
2021/11/19 02:05:11;;;;;;;13.70;6.30;;;20.00;46.40;;;;;;4899287;29;20485;-60
2021/11/19 02:07:45;;;;;;;11.23;5.75;;;20.00;46.40;;;;;;4900401;29;20092;-60
2021/11/19 02:10:37;;;;;;;12.07;6.05;;;20.00;46.40;;;;;;4900566;29;20024;-60
2021/11/19 02:13:18;;;;;;;11.57;6.13;;;20.00;46.50;;;;;;4900403;29;20554;-60
2021/11/19 02:15:49;;;;;;;12.48;6.32;;;19.90;46.40;;;;;;4900136;29;20108;-60
2021/11/19 02:18:20;;;;;;;11.23;6.05;;;20.00;46.40;;;;;;4900233;29;20043;-60
2021/11/19 02:20:57;;;;;;;10.07;6.10;;;20.00;46.50;;;;;;4898971;29;20028;-60
2021/11/19 02:23:49;;;;;;;10.98;6.13;;;19.90;46.50;;;;;;4898688;29;20049;-60
2021/11/19 02:26:19;;;;;;;10.93;5.55;;;20.00;46.40;;;;;;4900149;29;20025;-60
2021/11/19 02:28:48;;;;;;;9.77;5.60;;;19.90;46.50;;;;;;4900160;29;20519;-60
2021/11/19 02:31:50;;;;;;;10.63;5.43;;;19.90;46.50;;;;;;4900120;29;20056;-60
2021/11/19 02:34:16;;;;;;;10.57;6.00;;;20.00;46.50;;;;;;4898363;29;20037;-60
2021/11/19 02:37:03;;;;;;;12.05;5.97;;;20.00;46.50;;;;;;4899572;29;20080;-60
2021/11/19 02:39:34;;;;;;;11.82;6.40;;;19.90;46.50;;;;;;4899746;29;20107;-60
2021/11/19 02:42:11;;;;;;;10.70;5.55;;;19.90;46.50;;;;;;4899753;29;20024;-60
2021/11/19 02:44:40;;;;;;;10.05;5.88;;;20.00;46.60;;;;;;4899776;29;20112;-60
2021/11/19 02:47:12;;;;;;;11.57;6.50;;;19.90;46.50;;;;;;4898421;29;20035;-60
2021/11/19 02:49:38;;;;;;;12.25;6.13;;;19.90;46.60;;;;;;4899758;29;20033;-60
2021/11/19 02:52:06;;;;;;;10.38;5.95;;;20.00;46.50;;;;;;4899778;29;20059;-60
2021/11/19 02:54:33;;;;;;;11.88;6.60;;;19.90;46.50;;;;;;4899590;29;20488;-60
2021/11/19 02:57:01;;;;;;;9.98;6.10;;;19.90;46.60;;;;;;4899605;29;20092;-60
2021/11/19 02:59:28;;;;;;;11.10;6.65;;;20.00;46.60;;;;;;4899468;29;20025;-60
2021/11/19 03:01:59;;;;;;;11.07;6.75;;;20.00;46.60;;;;;;4898214;29;20065;-60
2021/11/19 03:04:38;;;;;;;11.90;6.80;;;19.90;46.60;;;;;;4898432;29;20528;-60
2021/11/19 03:07:04;;;;;;;12.77;6.45;;;19.90;46.60;;;;;;4899332;29;20124;-60
2021/11/19 03:09:40;;;;;;;9.57;5.90;;;19.90;46.60;;;;;;4899380;29;20422;-60
2021/11/19 03:12:09;;;;;;;12.55;6.70;;;20.00;46.60;;;;;;4899372;29;20425;-60
2021/11/19 03:14:35;;;;;;;10.98;6.50;;;19.90;46.60;;;;;;4899212;29;20048;-60
2021/11/19 03:17:02;;;;;;;9.65;6.13;;;19.90;46.60;;;;;;4899507;29;20032;-60
2021/11/19 03:19:28;;;;;;;11.75;6.47;;;20.00;46.60;;;;;;4899206;29;20072;-60
2021/11/19 03:21:54;;;;;;;12.27;6.32;;;19.90;46.60;;;;;;4899115;29;20361;-60
2021/11/19 03:24:21;;;;;;;10.77;6.07;;;20.00;46.60;;;;;;4898946;29;20082;-60
2021/11/19 03:26:49;;;;;;;12.57;6.72;;;19.90;46.70;;;;;;4898910;29;20107;-60
2021/11/19 03:29:16;;;;;;;10.88;6.50;;;19.90;46.70;;;;;;4898802;29;20035;-60
2021/11/19 03:31:43;;;;;;;10.82;6.20;;;19.90;46.70;;;;;;4897680;29;20380;-60
2021/11/19 03:34:10;;;;;;;11.00;6.13;;;20.00;46.70;;;;;;4898923;29;20035;-60
2021/11/19 03:36:39;;;;;;;11.75;7.00;;;20.00;46.70;;;;;;4898878;29;20061;-60
2021/11/19 03:39:06;;;;;;;9.93;6.25;;;19.90;46.70;;;;;;4899098;29;20028;-60
2021/11/19 03:41:34;;;;;;;11.60;6.45;;;20.00;46.70;;;;;;4897525;29;20032;-60
2021/11/19 03:44:08;;;;;;;11.32;6.75;;;19.90;46.70;;;;;;4898733;29;20025;-60
2021/11/19 03:46:38;;;;;;;10.85;6.20;;;20.00;46.70;;;;;;4898218;29;20120;-60
2021/11/19 03:49:04;;;;;;;10.98;6.65;;;19.90;46.70;;;;;;4898558;29;20519;-60
2021/11/19 03:51:56;;;;;;;10.38;6.25;;;19.90;46.70;;;;;;4898789;29;20029;-60
2021/11/19 03:54:25;;;;;;;10.90;5.82;;;19.90;46.80;;;;;;4898622;29;20029;-60
2021/11/19 03:56:52;;;;;;;12.10;6.82;;;19.90;46.70;;;;;;4898588;29;20035;-60
2021/11/19 03:59:18;;;;;;;11.10;6.32;;;19.90;46.80;;;;;;4898411;29;20702;-60
2021/11/19 04:01:47;;;;;;;11.82;6.43;;;19.90;46.70;;;;;;4898367;29;20080;-60
2021/11/19 04:04:14;;;;;;;11.65;6.80;;;20.00;46.80;;;;;;4898578;29;20045;-60
2021/11/19 04:06:41;;;;;;;11.13;6.00;;;19.90;46.80;;;;;;4898128;29;20040;-60
2021/11/19 04:09:07;;;;;;;11.75;6.78;;;19.90;46.80;;;;;;4898383;29;20112;-60
2021/11/19 04:11:33;;;;;;;10.55;6.00;;;19.90;46.80;;;;;;4898142;29;20076;-60
2021/11/19 04:13:59;;;;;;;11.40;6.63;;;19.90;46.80;;;;;;4898494;29;20111;-60
2021/11/19 04:16:29;;;;;;;11.02;6.20;;;19.90;46.80;;;;;;4898118;29;20495;-60
2021/11/19 04:18:55;;;;;;;11.35;5.75;;;19.90;46.80;;;;;;4896899;29;20028;-60
2021/11/19 04:21:21;;;;;;;10.27;5.95;;;19.90;46.80;;;;;;4898424;29;20020;-60
2021/11/19 04:23:49;;;;;;;11.80;5.85;;;19.90;46.80;;;;;;4897950;29;20131;-61
2021/11/19 04:26:16;;;;;;;10.00;5.97;;;19.90;46.80;;;;;;4896711;29;20387;-60
2021/11/19 04:28:43;;;;;;;10.82;6.18;;;20.00;46.80;;;;;;4897929;29;20505;-60
2021/11/19 04:31:09;;;;;;;10.75;5.85;;;19.90;46.80;;;;;;4898041;29;20039;-60
2021/11/19 04:33:35;;;;;;;9.57;6.05;;;19.90;46.80;;;;;;4897937;29;20028;-60
2021/11/19 04:36:00;;;;;;;10.60;6.47;;;19.90;46.90;;;;;;4897998;29;20021;-60
2021/11/19 04:38:27;;;;;;;9.88;5.57;;;19.90;46.90;;;;;;4896672;29;20039;-60
2021/11/19 04:40:54;;;;;;;11.63;5.82;;;19.90;46.90;;;;;;4898093;29;20024;-60
2021/11/19 04:43:22;;;;;;;10.65;5.30;;;19.90;46.90;;;;;;4897839;29;20032;-60
2021/11/19 04:45:48;;;;;;;12.95;6.28;;;19.90;46.90;;;;;;4897829;29;20124;-60
2021/11/19 04:48:14;;;;;;;12.38;5.25;;;19.90;46.90;;;;;;4880954;29;20450;-60
2021/11/19 04:50:43;;;;;;;10.02;5.70;;;19.90;46.90;;;;;;4881100;29;20513;-60
2021/11/19 04:53:11;;;;;;;10.15;5.47;;;19.90;46.90;;;;;;4897712;29;20033;-61
2021/11/19 04:55:37;;;;;;;11.15;6.07;;;19.90;46.90;;;;;;4897822;29;20077;-60
2021/11/19 04:58:03;;;;;;;9.50;5.65;;;19.90;46.90;;;;;;4898279;29;20029;-60
2021/11/19 05:00:36;;;;;;;8.77;5.38;;;19.90;46.90;;;;;;4901671;29;20112;-60
2021/11/19 05:03:02;;;;;;;9.43;5.63;;;19.90;46.90;;;;;;4901614;29;20111;-60
2021/11/19 05:05:28;;;;;;;9.30;5.63;;;19.90;46.90;;;;;;4901551;29;20032;-60
2021/11/19 05:07:54;;;;;;;10.30;5.97;;;19.90;47.00;;;;;;4900351;29;20041;-60
2021/11/19 05:10:19;;;;;;;9.63;5.60;;;19.90;47.00;;;;;;4901490;29;20029;-60
2021/11/19 05:12:48;;;;;;;10.00;5.32;;;19.90;46.90;;;;;;4901340;29;20400;-60
2021/11/19 05:15:15;;;;;;;11.20;5.18;;;19.90;46.90;;;;;;4901392;29;20473;-60
2021/11/19 05:17:41;;;;;;;9.07;5.03;;;19.90;46.90;;;;;;4901376;29;20032;-60
2021/11/19 05:20:09;;;;;;;11.20;5.53;;;19.90;46.90;;;;;;4901646;29;20031;-60
2021/11/19 05:22:35;;;;;;;8.18;4.82;;;20.00;46.90;;;;;;4899690;29;20046;-60
2021/11/19 05:25:04;;;;;;;9.35;5.05;;;20.00;46.80;;;;;;4899929;29;20047;-60
2021/11/19 05:27:29;;;;;;;10.07;5.63;;;20.00;46.90;;;;;;4900981;29;20096;-60
2021/11/19 05:29:55;;;;;;;9.30;5.28;;;20.00;46.90;;;;;;4900986;29;20425;-60
2021/11/19 05:32:21;;;;;;;9.63;4.55;;;20.00;46.80;;;;;;4901010;29;20120;-60
2021/11/19 05:34:47;;;;;;;9.10;5.20;;;20.00;46.80;;;;;;4899806;29;20397;-60
2021/11/19 05:37:13;;;;;;;8.70;4.93;;;20.00;46.80;;;;;;4901011;29;20036;-60
2021/11/19 05:39:38;;;;;;;10.15;5.43;;;20.00;46.80;;;;;;4900812;29;20016;-60
2021/11/19 05:42:05;;;;;;;9.80;5.32;;;20.00;46.80;;;;;;4900880;29;20047;-60
2021/11/19 05:44:32;;;;;;;9.05;5.30;;;20.10;46.80;;;;;;4901123;29;20024;-60
2021/11/19 05:46:59;;;;;;;9.07;4.93;;;20.00;46.80;;;;;;4900688;29;20042;-60
2021/11/19 05:49:25;;;;;;;9.90;5.25;;;20.10;46.80;;;;;;4900763;29;20025;-60
2021/11/19 05:51:53;;;;;;;9.88;4.70;;;20.10;46.70;;;;;;4900946;29;20024;-60
2021/11/19 05:54:22;;;;;;;9.30;5.20;;;20.10;46.70;;;;;;4900689;29;20522;-61
2021/11/19 05:56:49;;;;;;;9.52;4.93;;;20.10;46.80;;;;;;4899491;29;20040;-60
2021/11/19 05:59:14;;;;;;;8.27;4.88;;;20.10;46.70;;;;;;4900760;29;20029;-60
2021/11/19 06:01:40;;;;;;;9.52;5.35;;;20.10;46.80;;;;;;4900536;29;20040;-60
2021/11/19 06:04:06;;;;;;;8.95;5.07;;;20.10;46.80;;;;;;4900772;29;20476;-60
2021/11/19 06:06:31;;;;;;;9.30;5.47;;;20.10;46.80;;;;;;4900396;29;20119;-60
2021/11/19 06:08:57;;;;;;;9.10;4.80;;;20.10;46.80;;;;;;4900485;29;20039;-60
2021/11/19 06:11:29;;;;;;;8.95;4.72;;;20.20;46.80;;;;;;4898456;29;20100;-60
2021/11/19 06:13:59;;;;;;;8.00;4.68;;;20.10;46.80;;;;;;4900480;29;20115;-60
2021/11/19 06:16:29;;;;;;;10.10;4.82;;;20.20;46.80;;;;;;4900318;29;20507;-60
2021/11/19 06:19:00;;;;;;;9.75;4.75;;;20.10;46.80;;;;;;4900235;29;20028;-60
2021/11/19 06:21:33;;;;;;;10.35;5.20;;;20.10;46.80;;;;;;4898862;29;20032;-60
2021/11/19 06:24:03;;;;;;;10.00;4.82;;;20.20;46.90;;;;;;4898608;29;20390;-60
2021/11/19 06:26:30;;;;;;;9.23;4.82;;;20.10;46.90;;;;;;4899977;29;20132;-60
2021/11/19 06:29:06;;;;;;;8.80;4.43;;;20.10;46.90;;;;;;4900038;29;20481;-60
2021/11/19 06:31:38;;;;;;;8.55;4.90;;;20.10;46.90;;;;;;4900031;29;20032;-60
2021/11/19 06:34:04;;;;;;;8.27;4.72;;;20.20;46.90;;;;;;4900040;29;20033;-60
2021/11/19 06:36:31;;;;;;;8.52;4.53;;;20.20;46.90;;;;;;4900099;29;20477;-60
2021/11/19 06:38:58;;;;;;;8.18;4.25;;;20.10;46.90;;;;;;4899777;29;20028;-60
2021/11/19 06:41:23;;;;;;;7.78;4.63;;;20.10;46.90;;;;;;4899886;29;20063;-60
2021/11/19 06:43:49;;;;;;;8.95;4.72;;;20.10;46.90;;;;;;4899842;29;20071;-60
2021/11/19 06:46:17;;;;;;;8.60;4.60;;;20.10;47.00;;;;;;4899933;29;20084;-60
2021/11/19 06:48:44;;;;;;;9.20;4.68;;;20.10;46.90;;;;;;4900016;29;20051;-60
2021/11/19 06:51:10;;;;;;;8.85;4.50;;;20.10;47.00;;;;;;4899811;29;20043;-60
2021/11/19 06:53:36;;;;;;;9.57;4.47;;;20.20;47.00;;;;;;4898434;29;20048;-60
2021/11/19 06:56:03;;;;;;;9.15;4.68;;;20.10;47.00;;;;;;4899629;29;20496;-60
2021/11/19 06:58:29;;;;;;;8.23;4.50;;;20.20;47.00;;;;;;4899511;29;20084;-60
2021/11/19 07:00:58;;;;;;;7.68;4.35;;;20.20;47.00;;;;;;4899590;29;20028;-61
2021/11/19 07:03:24;;;;;;;9.60;4.50;;;20.20;47.00;;;;;;4899676;29;20391;-60
2021/11/19 07:05:50;;;;;;;8.43;4.55;;;20.20;47.00;;;;;;4899327;29;20112;-60
2021/11/19 07:08:16;;;;;;;8.02;4.07;;;20.20;47.00;;;;;;4897995;29;20076;-60
2021/11/19 07:10:45;;;;;;;7.30;4.35;;;20.20;47.00;;;;;;4899376;29;20060;-60
2021/11/19 07:13:12;;;;;;;6.97;4.10;;;20.20;47.00;;;;;;4898216;29;20039;-60
2021/11/19 07:15:39;;;;;;;9.85;4.97;;;20.20;47.10;;;;;;4899421;29;20043;-60
2021/11/19 07:18:05;;;;;;;7.18;3.97;;;20.20;47.00;;;;;;4899428;29;20040;-60
2021/11/19 07:20:32;;;;;;;7.75;3.80;;;20.20;47.00;;;;;;4899181;29;20031;-60
2021/11/19 07:22:58;;;;;;;8.98;4.20;;;20.10;47.00;;;;;;4898246;29;20119;-60
2021/11/19 07:25:26;;;;;;;7.50;3.72;;;20.20;47.00;;;;;;4897774;29;20499;-60
2021/11/19 07:27:56;;;;;;;8.18;4.30;;;20.20;47.00;;;;;;4898850;29;20059;-60
2021/11/19 07:30:26;;;;;;;8.88;4.65;;;20.20;47.00;;;;;;4899440;29;20021;-60
2021/11/19 07:32:51;;;;;;;7.63;4.25;;;20.20;47.00;;;;;;4898831;29;20036;-60
2021/11/19 07:35:18;;;;;;;8.65;4.43;;;20.20;47.00;;;;;;4898883;29;20025;-60
2021/11/19 07:37:44;;;;;;;8.20;4.07;;;20.20;47.00;;;;;;4898771;29;20116;-60
2021/11/19 07:40:11;;;;;;;7.57;4.35;;;20.20;47.10;;;;;;4898892;29;20111;-60
2021/11/19 07:42:44;;;;;;;7.88;4.00;;;20.20;47.10;;;;;;5131271;27;20409;-60
2021/11/19 07:45:11;;;;;;;6.93;3.95;;;20.20;47.10;;;;;;5131252;27;20031;-61
2021/11/19 07:47:38;;;;;;;7.57;4.13;;;20.20;47.10;;;;;;5131221;27;20031;-60
2021/11/19 07:50:06;;;;;;;7.13;4.18;;;20.20;47.10;;;;;;5131422;28;20027;-61
2021/11/19 07:52:32;;;;;;;7.38;4.13;;;20.20;47.10;;;;;;5131323;27;20031;-60
2021/11/19 07:54:57;;;;;;;7.82;3.95;;;20.20;47.10;;;;;;5131121;27;20037;-58
2021/11/19 07:57:23;;;;;;;7.30;3.88;;;20.20;47.10;;;;;;5131063;27;20049;-60
2021/11/19 07:59:49;;;;;;;8.07;4.13;;;20.20;47.10;;;;;;5129837;28;20031;-60
2021/11/19 08:02:15;;;;;;;7.70;3.97;;;20.20;47.10;;;;;;5130901;27;20083;-60
2021/11/19 08:04:41;;;;;;;7.60;3.85;;;20.20;47.10;;;;;;5130826;28;20019;-60
2021/11/19 08:07:08;;;;;;;7.63;4.00;;;20.20;47.10;;;;;;5129478;28;20026;-60
2021/11/19 08:09:34;;;;;;;7.65;3.65;;;20.20;47.10;;;;;;5130575;27;20479;-60
2021/11/19 08:12:00;;;;;;;9.00;4.40;;;20.20;47.10;;;;;;5130750;27;20108;-60
2021/11/19 08:14:26;;;;;;;7.95;4.03;;;20.20;47.10;;;;;;5131003;27;20027;-60
2021/11/19 08:17:03;;;;;;;8.35;4.20;;;20.20;47.20;;;;;;5131040;27;20020;-60
2021/11/19 08:19:43;;;;;;;8.52;3.80;;;20.20;47.10;;;;;;5129565;27;20465;-60
2021/11/19 08:22:09;;;;;;;8.90;4.55;;;20.20;47.10;;;;;;5130373;27;20160;-60
2021/11/19 08:24:35;;;;;;;7.88;4.03;;;20.20;47.10;;;;;;5130591;27;20051;-60
2021/11/19 08:27:06;;;;;;;6.93;3.75;;;20.20;47.20;;;;;;5129279;28;20024;-60
2021/11/19 08:29:34;;;;;;;8.95;3.97;;;20.20;47.20;;;;;;5130559;27;20091;-61
2021/11/19 08:32:01;;;;;;;7.03;3.70;;;20.20;47.20;;;;;;5129171;28;20094;-60
2021/11/19 08:34:27;;;;;;;8.88;4.95;;;20.20;47.20;;;;;;5130092;27;20076;-60
2021/11/19 08:36:53;;;;;;;6.60;3.40;;;20.20;47.20;;;;;;5130557;28;20035;-60
2021/11/19 08:39:21;;;;;;;6.78;3.63;;;20.20;47.20;;;;;;5130538;27;20016;-60
2021/11/19 08:41:48;;;;;;;7.95;3.92;;;20.20;47.30;;;;;;5130012;27;20110;-60
2021/11/19 08:44:13;;;;;;;6.68;3.63;;;20.20;47.30;;;;;;5130420;27;20403;-60
2021/11/19 08:46:42;;;;;;;7.10;3.80;;;20.20;47.20;;;;;;5130119;28;20066;-60
2021/11/19 08:49:10;;;;;;;7.03;3.38;;;20.20;47.20;;;;;;5130088;27;20023;-60
2021/11/19 08:51:37;;;;;;;7.05;3.80;;;20.20;47.30;;;;;;5130062;27;20130;-60
2021/11/19 08:54:05;;;;;;;8.07;4.32;;;20.20;47.30;;;;;;5116982;27;20016;-60
2021/11/19 08:56:36;;;;;;;6.65;3.63;;;20.20;47.20;;;;;;5116384;28;20047;-60
2021/11/19 08:59:04;;;;;;;6.35;3.45;;;20.20;47.30;;;;;;5114982;28;20024;-60
2021/11/19 09:01:31;;;;;;;6.10;3.03;;;20.20;47.30;;;;;;5116145;28;20071;-60
2021/11/19 09:03:57;;;;;;;6.85;3.67;;;20.20;47.30;;;;;;5116373;28;20027;-60
2021/11/19 09:06:23;;;;;;;8.60;3.53;;;20.20;47.30;;;;;;5116119;28;20034;-60
2021/11/19 09:08:49;;;;;;;7.90;3.90;;;20.20;47.30;;;;;;5116229;28;20125;-60
2021/11/19 09:11:19;;;;;;;7.85;4.07;;;20.20;47.30;;;;;;5116029;28;20050;-60
2021/11/19 09:13:47;;;;;;;6.38;3.45;;;20.30;47.30;;;;;;5116295;28;20012;-61
2021/11/19 09:16:15;;;;;;;6.75;3.55;;;20.30;47.30;;;;;;5116225;28;20406;-60
2021/11/19 09:19:08;;;;;;;6.07;3.10;;;20.30;47.30;;;;;;5115714;28;20482;-60
2021/11/19 09:22:08;;;;;;;7.15;3.40;;;20.30;47.30;;;;;;5116061;28;20035;-60
2021/11/19 09:24:36;;;;;;;6.70;3.25;;;20.20;47.30;;;;;;5113337;28;20019;-60
2021/11/19 09:27:10;;;;;;;7.85;3.65;;;20.20;47.30;;;;;;5115957;28;20106;-60
2021/11/19 09:29:52;;;;;;;7.25;3.60;;;20.20;47.40;;;;;;5115753;28;20098;-60
2021/11/19 09:32:20;;;;;;;7.70;3.45;;;20.20;47.30;;;;;;5115702;28;20067;-61
2021/11/19 09:34:48;;;;;;;6.25;3.38;;;20.20;47.40;;;;;;5115681;28;20031;-60
2021/11/19 09:37:16;;;;;;;8.27;3.72;;;20.20;47.40;;;;;;5115741;28;20030;-60
2021/11/19 09:39:43;;;;;;;6.68;3.63;;;20.20;47.30;;;;;;5115477;28;20052;-60
2021/11/19 09:42:46;;;;;;;7.82;3.45;;;20.20;47.40;;;;;;5115126;28;20050;-61
2021/11/19 09:45:32;;;;;;;6.45;3.30;;;20.20;47.40;;;;;;5115330;28;20028;-60
2021/11/19 09:48:12;;;;;;;7.78;3.88;;;20.20;47.40;;;;;;5115401;28;20026;-60
2021/11/19 09:51:00;;;;;;;7.05;3.20;;;20.20;47.40;;;;;;5113982;28;20050;-60
2021/11/19 09:54:01;;;;;;;6.65;3.53;;;20.30;47.40;;;;;;5113959;28;20118;-60
2021/11/19 09:56:46;;;;;;;6.10;3.08;;;20.30;47.40;;;;;;5115083;28;20072;-61
2021/11/19 09:59:17;;;;;;;6.10;3.17;;;20.30;47.40;;;;;;5115200;28;20031;-60
2021/11/19 10:02:12;;;;;;;6.88;3.55;;;20.30;47.40;;;;;;5114911;28;20483;-60
2021/11/19 10:05:11;;;;;;;6.75;3.60;;;20.30;47.40;;;;;;5113899;28;20024;-60
2021/11/19 10:08:10;;;;;;;6.30;3.20;;;20.20;47.40;;;;;;5115249;28;20024;-60
2021/11/19 10:11:13;;;;;;;7.15;3.28;;;20.20;47.40;;;;;;5113593;28;20593;-60
2021/11/19 10:14:01;;;;;;;5.40;3.00;;;20.20;47.50;;;;;;5130527;27;20020;-60
2021/11/19 10:16:32;;;;;;;6.40;3.10;;;20.20;47.50;;;;;;5114740;28;20024;-60
2021/11/19 10:19:23;;;;;;;5.22;2.83;;;20.20;47.50;;;;;;5114665;28;20051;-60
2021/11/19 10:22:01;;;;;;;6.28;3.20;;;20.30;47.50;;;;;;5114792;28;20032;-60
2021/11/19 10:24:42;;;;;;;6.75;3.50;;;20.30;47.50;;;;;;5114722;28;20023;-60
2021/11/19 10:27:24;;;;;;;6.85;3.45;;;20.30;47.50;;;;;;5114457;28;20375;-60
2021/11/19 10:30:07;;;;;;;8.23;3.90;;;20.30;47.50;;;;;;5114534;28;20051;-60
2021/11/19 10:32:33;;;;;;;6.70;3.20;;;20.20;47.50;;;;;;5114475;28;20459;-60
2021/11/19 10:35:30;;;;;;;5.80;3.00;;;20.20;47.50;;;;;;5114423;28;20416;-60
2021/11/19 10:38:23;;;;;;;7.38;3.78;;;20.30;47.50;;;;;;5114232;28;20028;-60
2021/11/19 10:41:01;;;;;;;6.10;3.20;;;20.30;47.50;;;;;;5114034;28;20073;-60
2021/11/19 10:43:57;;;;;;;5.85;2.90;;;20.30;47.50;;;;;;5114519;28;20058;-60
2021/11/19 10:46:22;;;;;;;6.30;3.30;;;20.30;47.50;;;;;;5130029;27;20113;-61
2021/11/19 10:49:26;;;;;;;6.45;3.33;;;20.30;47.50;;;;;;5112691;28;20023;-60
2021/11/19 10:52:10;;;;;;;6.65;3.22;;;20.30;47.50;;;;;;5109510;28;20469;-60
2021/11/19 10:54:41;;;;;;;6.80;3.55;;;20.30;47.50;;;;;;5113912;28;20027;-60
2021/11/19 10:57:35;;;;;;;6.47;3.55;;;20.30;47.50;;;;;;5113876;28;20141;-60
2021/11/19 11:00:22;;;;;;;6.57;3.38;;;20.30;47.50;;;;;;5113855;28;20023;-60
2021/11/19 11:02:58;;;;;;;7.07;3.28;;;20.30;47.50;;;;;;5113715;28;20445;-60
2021/11/19 11:05:34;;;;;;;7.50;3.63;;;20.30;47.60;;;;;;5113905;28;20069;-60
2021/11/19 11:08:23;;;;;;;7.07;3.60;;;20.30;47.50;;;;;;5113802;28;20031;-60
2021/11/19 11:10:56;;;;;;;6.75;3.30;;;20.30;47.60;;;;;;5113925;28;20102;-60
2021/11/19 11:13:29;;;;;;;6.75;3.40;;;20.30;47.60;;;;;;5112320;28;20028;-60
2021/11/19 11:16:19;;;;;;;6.60;3.45;;;20.30;47.60;;;;;;5113217;28;20501;-60
2021/11/19 11:18:44;;;;;;;5.35;2.83;;;20.30;47.60;;;;;;5113784;28;20024;-60
2021/11/19 11:21:42;;;;;;;6.85;3.28;;;20.30;47.50;;;;;;5113296;28;20477;-60
2021/11/19 11:24:42;;;;;;;6.75;3.35;;;20.30;47.60;;;;;;5098853;28;20027;-60
2021/11/19 11:27:10;;;;;;;7.50;4.25;;;20.30;47.60;;;;;;5107308;28;20031;-60
2021/11/19 11:29:50;;;;;;;6.97;3.38;;;20.30;47.60;;;;;;5113379;28;20042;-60
2021/11/19 11:32:22;;;;;;;6.07;3.20;;;20.30;47.50;;;;;;5112152;28;20023;-60
2021/11/19 11:34:48;;;;;;;6.63;3.33;;;20.30;47.60;;;;;;5113354;28;20104;-60
2021/11/19 11:37:15;;;;;;;6.63;3.50;;;20.30;47.60;;;;;;5113329;28;20059;-60
2021/11/19 11:39:44;;;;;;;6.15;3.25;;;20.30;47.60;;;;;;5113322;28;20011;-60
2021/11/19 11:42:24;;;;;;;6.25;3.53;;;20.30;47.60;;;;;;5113036;28;20051;-60
2021/11/19 11:44:54;;;;;;;6.72;3.13;;;20.30;47.60;;;;;;5113209;28;20026;-60
2021/11/19 11:48:03;;;;;;;7.20;3.45;;;20.30;47.60;;;;;;5113202;28;20131;-60
2021/11/19 11:50:29;;;;;;;7.32;3.47;;;20.30;47.60;;;;;;5110822;28;20164;-60
2021/11/19 11:53:00;;;;;;;6.55;3.55;;;20.30;47.60;;;;;;5113243;28;20024;-60
2021/11/19 11:55:29;;;;;;;6.13;3.35;;;20.30;47.60;;;;;;5113039;28;20023;-60
2021/11/19 11:58:10;;;;;;;7.07;3.72;;;20.30;47.60;;;;;;5111848;28;20050;-60
2021/11/19 12:01:01;;;;;;;6.95;3.22;;;20.30;47.60;;;;;;5113410;28;20028;-60
2021/11/19 12:03:50;;;;;;;6.82;3.60;;;20.30;47.60;;;;;;5113209;28;20031;-60
2021/11/19 12:06:24;;;;;;;6.53;3.10;;;20.30;47.60;;;;;;5113310;28;20133;-60
2021/11/19 12:09:09;;;;;;;7.40;3.65;;;20.30;47.60;;;;;;5111848;28;20378;-60
2021/11/19 12:12:02;;;;;;;7.45;3.20;;;20.30;47.60;;;;;;5113416;28;20077;-60
2021/11/19 12:14:50;;;;;;;7.00;3.53;;;20.30;47.70;;;;;;5113171;28;20016;-60
2021/11/19 12:17:37;;;;;;;6.18;3.17;;;20.30;47.70;;;;;;5112989;28;20102;-61
2021/11/19 12:20:06;;;;;;;5.95;3.25;;;20.30;47.60;;;;;;5111592;28;20024;-61
2021/11/19 12:22:45;;;;;;;6.85;3.40;;;20.30;47.70;;;;;;5111623;28;20038;-61
2021/11/19 12:25:29;;;;;;;6.03;3.03;;;20.30;47.70;;;;;;5112867;28;20459;-61
2021/11/19 12:28:02;;;;;;;11.68;6.95;;;20.30;47.70;;;;;;5124635;27;20595;-62
2021/11/19 12:30:30;;;;;;;13.25;9.57;;;20.30;48.30;;;;;;5136438;27;20035;-62
2021/11/19 12:33:11;;;;;;;17.48;11.32;;;19.60;51.30;;;;;;5137064;27;20458;-61
2021/11/19 12:35:43;;;;;;;15.50;10.63;;;19.00;53.80;;;;;;5093795;28;20035;-61
2021/11/19 12:38:18;;;;;;;18.75;11.82;;;18.80;54.70;;;;;;5109708;27;20026;-63
2021/11/19 12:40:50;;;;;;;15.82;11.82;;;18.90;55.00;;;;;;5112267;27;20040;-61
2021/11/19 12:43:50;;;;;;;22.20;12.80;;;18.90;55.40;;;;;;5119406;27;20024;-61
2021/11/19 12:46:34;;;;;;;18.60;13.52;;;18.90;55.20;;;;;;5118781;27;20117;-60
2021/11/19 12:49:32;;;;;;;20.40;13.25;;;18.60;56.50;;;;;;5126772;27;20046;-47
2021/11/19 12:52:17;;;;;;;27.65;16.88;;;18.60;57.30;;;;;;5123663;27;20377;-47
2021/11/19 12:55:11;;;;;;;22.98;14.77;;;18.80;57.20;;;;;;5121254;27;20024;-55
2021/11/19 12:57:58;;;;;;;24.38;15.05;;;19.00;57.00;;;;;;5115173;27;20036;-49
2021/11/19 13:00:36;;;;;;;26.80;14.65;;;19.00;57.20;;;;;;5112856;28;20034;-52
2021/11/19 13:03:42;;;;;;;22.55;14.85;;;19.00;57.10;;;;;;5114593;27;20394;-47
2021/11/19 13:06:51;;;;;;;22.25;14.60;;;18.90;57.50;;;;;;5112606;27;20364;-50
2021/11/19 13:09:17;;;;;;;25.50;15.73;;;18.90;57.30;;;;;;5116804;27;20272;-50